Time;durP1;ratioP1;P1;durP2;ratioP2;P2;SDS_P1;SDS_P2;PMS_P1;PMS_P2;Temp;Humidity;BMP_temperature;BMP_pressure;BME280_temperature;BME280_humidity;BME280_pressure;Samples;Min_cycle;Max_cycle;Signal;HPM_P1;HPM_P2
2022/10/26 00:02:17;;;;;;;9.70;6.28;;;8.90;99.90;;;;;;5020358;28;20103;-75
2022/10/26 00:04:43;;;;;;;6.82;3.60;;;9.00;99.90;;;;;;5029875;28;20022;-76
2022/10/26 00:07:08;;;;;;;8.73;4.93;;;9.00;99.90;;;;;;5011669;28;20113;-76
2022/10/26 00:09:34;;;;;;;7.93;4.63;;;9.10;99.90;;;;;;4996017;28;20079;-76
2022/10/26 00:11:59;;;;;;;7.60;4.57;;;9.00;99.90;;;;;;5031446;28;20032;-76
2022/10/26 00:14:25;;;;;;;7.70;4.80;;;9.00;99.90;;;;;;5018090;28;20030;-76
2022/10/26 00:16:51;;;;;;;9.35;4.47;;;8.90;99.90;;;;;;5005431;28;20057;-75
2022/10/26 00:19:17;;;;;;;11.65;4.65;;;8.90;99.90;;;;;;5008898;28;20498;-76
2022/10/26 00:21:42;;;;;;;8.38;4.30;;;8.90;99.90;;;;;;5013762;28;20033;-76
2022/10/26 00:24:11;;;;;;;6.75;3.45;;;8.90;99.90;;;;;;5018031;28;20141;-76
2022/10/26 00:26:36;;;;;;;12.65;4.10;;;8.90;99.90;;;;;;5031328;28;20022;-76
2022/10/26 00:29:02;;;;;;;8.80;3.72;;;9.00;99.90;;;;;;5018469;28;20029;-76
2022/10/26 00:31:28;;;;;;;7.07;4.28;;;8.90;99.90;;;;;;5031286;28;20455;-75
2022/10/26 00:33:55;;;;;;;6.40;3.40;;;8.90;99.90;;;;;;5018036;28;20101;-75
2022/10/26 00:36:22;;;;;;;11.70;3.95;;;8.90;99.90;;;;;;5023091;28;20028;-75
2022/10/26 00:38:49;;;;;;;6.50;3.47;;;8.80;99.90;;;;;;5024484;28;20057;-75
2022/10/26 00:41:16;;;;;;;6.55;3.50;;;8.70;99.90;;;;;;5029962;28;20021;-75
2022/10/26 00:43:42;;;;;;;8.40;3.53;;;8.70;99.90;;;;;;5030775;28;20458;-76
2022/10/26 00:46:13;;;;;;;5.55;3.50;;;8.70;99.90;;;;;;5021889;28;20121;-75
2022/10/26 00:48:43;;;;;;;11.32;3.65;;;8.70;99.90;;;;;;5024572;28;20369;-75
2022/10/26 00:51:16;;;;;;;10.45;3.60;;;8.70;99.90;;;;;;5024987;28;20029;-76
2022/10/26 00:53:42;;;;;;;10.20;4.07;;;8.80;99.90;;;;;;5034801;28;20026;-75
2022/10/26 00:56:07;;;;;;;5.13;3.30;;;8.90;99.90;;;;;;5023168;28;20117;-74
2022/10/26 00:58:34;;;;;;;6.53;3.88;;;8.80;99.90;;;;;;5028285;28;20520;-75
2022/10/26 01:01:00;;;;;;;7.80;4.47;;;8.80;99.90;;;;;;5026879;28;20099;-75
2022/10/26 01:03:26;;;;;;;8.38;4.03;;;8.90;99.90;;;;;;5003668;28;20026;-75
2022/10/26 01:05:55;;;;;;;11.55;4.78;;;8.90;99.90;;;;;;5034608;28;20028;-76
2022/10/26 01:08:22;;;;;;;9.85;4.20;;;9.00;99.90;;;;;;5003518;28;20440;-75
2022/10/26 01:10:48;;;;;;;9.25;4.45;;;9.10;99.90;;;;;;5036352;28;20025;-74
2022/10/26 01:13:16;;;;;;;7.18;3.70;;;9.10;99.90;;;;;;5034357;28;20025;-75
2022/10/26 01:15:56;;;;;;;11.88;5.47;;;9.20;99.90;;;;;;5021399;28;20029;-74
2022/10/26 01:18:52;;;;;;;12.18;6.07;;;9.10;99.90;;;;;;5005550;28;20127;-75
2022/10/26 01:21:33;;;;;;;7.50;4.20;;;8.80;99.90;;;;;;5010900;28;20026;-75
2022/10/26 01:24:19;;;;;;;6.18;4.13;;;8.80;99.90;;;;;;5010082;28;20108;-75
2022/10/26 01:26:48;;;;;;;7.38;4.50;;;9.00;99.90;;;;;;5025281;28;20395;-75
2022/10/26 01:29:34;;;;;;;8.95;5.05;;;9.20;99.90;;;;;;5021004;28;20387;-74
2022/10/26 01:32:31;;;;;;;9.63;4.88;;;9.20;99.90;;;;;;5033305;28;20029;-73
2022/10/26 01:35:11;;;;;;;11.32;5.38;;;9.30;99.90;;;;;;5017841;28;20487;-74
2022/10/26 01:37:47;;;;;;;11.02;4.95;;;9.30;99.90;;;;;;5020825;28;20049;-74
2022/10/26 01:40:20;;;;;;;12.43;5.78;;;9.30;99.90;;;;;;5033884;28;20022;-73
2022/10/26 01:42:50;;;;;;;10.30;6.85;;;9.30;99.90;;;;;;5045328;28;20506;-74
2022/10/26 01:45:16;;;;;;;10.77;5.30;;;9.20;99.90;;;;;;5020485;28;20084;-77
2022/10/26 01:47:44;;;;;;;11.20;5.22;;;9.20;99.90;;;;;;5007173;28;20030;-76
2022/10/26 01:50:11;;;;;;;6.60;4.70;;;9.20;99.90;;;;;;5027382;28;20021;-75
2022/10/26 01:52:36;;;;;;;11.20;5.97;;;9.30;99.90;;;;;;5005340;28;20454;-74
2022/10/26 01:55:05;;;;;;;11.00;5.72;;;9.20;99.90;;;;;;5020562;28;20036;-75
2022/10/26 01:57:36;;;;;;;6.38;5.20;;;9.20;99.90;;;;;;5006360;28;20468;-74
2022/10/26 02:00:07;;;;;;;10.45;5.45;;;9.10;99.90;;;;;;5008963;28;20026;-76
2022/10/26 02:02:53;;;;;;;10.15;6.82;;;9.00;99.90;;;;;;5006766;28;20026;-75
2022/10/26 02:05:44;;;;;;;11.95;6.22;;;8.90;99.90;;;;;;5020468;28;20471;-76
2022/10/26 02:08:19;;;;;;;11.35;6.28;;;8.90;99.90;;;;;;5019908;28;20043;-75
2022/10/26 02:11:08;;;;;;;10.82;6.63;;;8.90;99.90;;;;;;5015692;28;20021;-75
2022/10/26 02:14:03;;;;;;;9.80;4.78;;;8.80;99.90;;;;;;5021280;28;20566;-75
2022/10/26 02:16:42;;;;;;;9.73;5.75;;;8.90;99.90;;;;;;5019960;28;20029;-76
2022/10/26 02:19:14;;;;;;;9.52;4.63;;;8.90;99.90;;;;;;5019910;28;20018;-76
2022/10/26 02:21:45;;;;;;;8.20;4.70;;;9.10;99.90;;;;;;5025300;28;20022;-75
2022/10/26 02:24:12;;;;;;;9.05;5.07;;;9.10;99.90;;;;;;5026610;28;20021;-75
2022/10/26 02:26:40;;;;;;;8.52;5.03;;;9.20;99.90;;;;;;5004477;28;20083;-74
2022/10/26 02:29:11;;;;;;;12.35;5.68;;;9.20;99.90;;;;;;5019713;28;20507;-75
2022/10/26 02:31:38;;;;;;;8.50;5.88;;;9.10;99.90;;;;;;5023111;28;20064;-76
2022/10/26 02:34:08;;;;;;;9.82;5.32;;;8.90;99.90;;;;;;5008882;28;20053;-75
2022/10/26 02:36:38;;;;;;;8.98;5.03;;;8.90;99.90;;;;;;5023318;28;20018;-76
2022/10/26 02:39:06;;;;;;;11.73;5.97;;;9.00;99.90;;;;;;5010796;28;20025;-76
2022/10/26 02:41:33;;;;;;;7.90;5.18;;;9.00;99.90;;;;;;4995401;28;20026;-75
2022/10/26 02:44:03;;;;;;;14.70;7.20;;;9.00;99.90;;;;;;5031377;28;20049;-75
2022/10/26 02:46:29;;;;;;;11.80;7.38;;;8.60;99.90;;;;;;5020358;28;20476;-76
2022/10/26 02:48:55;;;;;;;13.88;7.40;;;8.40;99.90;;;;;;5008330;28;20029;-75
2022/10/26 02:51:44;;;;;;;7.75;5.22;;;8.40;99.90;;;;;;5007558;28;20021;-75
2022/10/26 02:54:17;;;;;;;11.32;7.10;;;8.60;99.90;;;;;;5003786;28;20032;-75
2022/10/26 02:56:52;;;;;;;13.73;6.55;;;8.60;99.90;;;;;;5019195;28;20051;-75
2022/10/26 02:59:20;;;;;;;9.48;4.72;;;8.50;99.90;;;;;;5021809;28;20030;-75
2022/10/26 03:01:46;;;;;;;9.27;4.75;;;8.60;99.90;;;;;;5008182;28;20084;-74
2022/10/26 03:04:12;;;;;;;10.10;5.55;;;8.70;99.90;;;;;;5023629;28;20025;-75
2022/10/26 03:06:37;;;;;;;6.53;4.75;;;8.80;99.90;;;;;;5019195;28;20030;-76
2022/10/26 03:09:03;;;;;;;8.65;5.38;;;8.90;99.90;;;;;;5003632;28;20021;-75
2022/10/26 03:11:28;;;;;;;5.38;4.88;;;8.90;99.90;;;;;;5025648;28;20018;-75
2022/10/26 03:13:54;;;;;;;9.25;5.70;;;8.90;99.90;;;;;;5022503;28;20108;-75
2022/10/26 03:16:19;;;;;;;10.10;4.68;;;8.90;99.90;;;;;;5019030;28;20212;-75
2022/10/26 03:18:45;;;;;;;7.78;4.50;;;9.00;99.90;;;;;;5021404;28;20061;-75
2022/10/26 03:21:10;;;;;;;8.07;5.15;;;9.10;99.90;;;;;;5016242;28;20171;-74
2022/10/26 03:23:36;;;;;;;10.80;5.28;;;9.20;99.90;;;;;;5021730;28;20040;-75
2022/10/26 03:26:02;;;;;;;6.90;4.75;;;9.20;99.90;;;;;;5007941;28;20041;-75
2022/10/26 03:28:27;;;;;;;7.57;5.20;;;9.30;99.90;;;;;;5022103;28;20088;-74
2022/10/26 03:30:53;;;;;;;8.13;4.25;;;9.30;99.90;;;;;;5018768;28;20056;-75
2022/10/26 03:33:19;;;;;;;10.40;5.97;;;9.50;99.90;;;;;;5031894;28;20105;-75
2022/10/26 03:35:44;;;;;;;10.35;5.68;;;9.30;99.90;;;;;;5000988;28;20017;-75
2022/10/26 03:38:10;;;;;;;8.75;6.40;;;9.10;99.90;;;;;;5027890;28;20021;-75
2022/10/26 03:40:35;;;;;;;9.82;6.38;;;9.00;99.90;;;;;;5031812;28;20033;-75
2022/10/26 03:43:02;;;;;;;9.80;5.00;;;9.00;99.90;;;;;;5031876;28;20061;-76
2022/10/26 03:45:28;;;;;;;10.25;5.20;;;9.10;99.90;;;;;;5027845;28;20021;-75
2022/10/26 03:47:53;;;;;;;11.15;5.50;;;9.10;99.90;;;;;;5004854;28;20545;-75
2022/10/26 03:50:20;;;;;;;7.32;4.63;;;9.10;99.90;;;;;;5018392;28;20022;-75
2022/10/26 03:52:48;;;;;;;6.32;4.72;;;9.20;99.90;;;;;;5021014;28;20030;-75
2022/10/26 03:55:13;;;;;;;11.43;5.38;;;9.20;99.90;;;;;;5025249;28;20156;-75
2022/10/26 03:57:43;;;;;;;9.38;4.47;;;9.30;99.90;;;;;;5022368;28;20506;-75
2022/10/26 04:00:16;;;;;;;14.90;5.60;;;9.30;99.90;;;;;;5018459;28;20053;-77
2022/10/26 04:02:52;;;;;;;11.88;4.32;;;9.40;99.90;;;;;;5001522;28;20037;-77
2022/10/26 04:05:18;;;;;;;;;;;9.50;99.90;;;;;;5001648;28;20048;-76
2022/10/26 04:07:43;;;;;;;9.63;5.47;;;9.50;99.90;;;;;;5018194;28;20364;-76
2022/10/26 04:10:09;;;;;;;10.82;5.28;;;9.60;99.90;;;;;;5024798;28;20499;-77
2022/10/26 04:12:36;;;;;;;12.43;7.05;;;9.50;99.90;;;;;;5025019;28;20029;-76
2022/10/26 04:15:03;;;;;;;11.38;6.70;;;9.20;99.90;;;;;;5018791;28;20029;-76
2022/10/26 04:17:28;;;;;;;14.50;6.47;;;8.90;99.90;;;;;;5000156;28;20117;-76
2022/10/26 04:19:54;;;;;;;13.25;6.82;;;8.80;99.90;;;;;;5024916;28;20502;-76
2022/10/26 04:22:19;;;;;;;12.35;6.80;;;8.90;99.90;;;;;;5024699;28;20148;-75
2022/10/26 04:24:45;;;;;;;10.00;6.68;;;8.90;99.90;;;;;;5020283;28;20075;-76
2022/10/26 04:27:10;;;;;;;8.43;5.55;;;8.90;99.90;;;;;;5022188;28;20124;-75
2022/10/26 04:29:36;;;;;;;11.60;6.63;;;9.00;99.90;;;;;;5011251;28;20099;-76
2022/10/26 04:32:01;;;;;;;7.22;5.20;;;9.00;99.90;;;;;;5010159;28;20159;-76
2022/10/26 04:34:27;;;;;;;9.23;5.70;;;9.00;99.90;;;;;;5004109;28;20112;-76
2022/10/26 04:36:53;;;;;;;10.60;5.93;;;9.10;99.90;;;;;;5005290;28;20029;-76
2022/10/26 04:39:19;;;;;;;10.52;5.93;;;9.20;99.90;;;;;;5028697;28;20022;-75
2022/10/26 04:41:44;;;;;;;9.13;5.30;;;9.30;99.90;;;;;;5041842;28;20057;-75
2022/10/26 04:44:10;;;;;;;9.57;5.50;;;9.30;99.90;;;;;;5028787;28;20061;-76
2022/10/26 04:46:35;;;;;;;8.50;5.60;;;9.40;99.90;;;;;;5010237;28;20121;-76
2022/10/26 04:49:01;;;;;;;7.47;5.82;;;9.40;99.90;;;;;;5021188;28;20092;-76
2022/10/26 04:51:27;;;;;;;7.85;5.50;;;9.50;99.90;;;;;;5022053;28;20026;-77
2022/10/26 04:53:53;;;;;;;9.18;5.68;;;9.50;99.90;;;;;;5028145;28;20030;-76
2022/10/26 04:56:19;;;;;;;7.45;4.82;;;9.50;99.90;;;;;;5010191;28;20028;-76
2022/10/26 04:58:44;;;;;;;10.85;6.78;;;9.50;99.90;;;;;;5021164;28;20029;-77
2022/10/26 05:01:10;;;;;;;9.90;4.97;;;9.40;99.90;;;;;;5021868;28;20369;-77
2022/10/26 05:03:35;;;;;;;9.80;5.47;;;9.40;99.90;;;;;;5027829;28;20554;-76
2022/10/26 05:06:01;;;;;;;10.23;5.93;;;9.50;99.90;;;;;;5027311;28;20546;-76
2022/10/26 05:08:28;;;;;;;9.65;5.30;;;9.50;99.90;;;;;;5003295;28;20053;-76
2022/10/26 05:10:54;;;;;;;12.52;6.25;;;9.50;99.90;;;;;;5012743;28;20029;-76
2022/10/26 05:13:19;;;;;;;9.73;6.03;;;9.50;99.90;;;;;;5028658;28;20026;-75
2022/10/26 05:15:45;;;;;;;9.93;6.38;;;9.50;99.90;;;;;;5026871;28;20399;-75
2022/10/26 05:18:11;;;;;;;9.88;7.40;;;9.50;99.90;;;;;;5003269;28;20075;-76
2022/10/26 05:20:36;;;;;;;10.60;6.53;;;9.30;99.90;;;;;;5004041;28;20120;-76
2022/10/26 05:23:09;;;;;;;7.47;5.80;;;9.30;99.90;;;;;;5008717;28;20064;-75
2022/10/26 05:25:36;;;;;;;11.52;6.55;;;9.40;99.90;;;;;;5025753;28;20033;-76
2022/10/26 05:28:04;;;;;;;9.98;6.15;;;9.50;99.90;;;;;;5021805;28;20232;-75
2022/10/26 05:30:30;;;;;;;9.00;6.15;;;9.60;99.90;;;;;;5002586;28;20034;-75
2022/10/26 05:33:01;;;;;;;8.73;5.68;;;9.70;99.90;;;;;;5032655;28;20026;-76
2022/10/26 05:35:27;;;;;;;14.00;7.22;;;9.70;99.90;;;;;;5018494;28;20018;-76
2022/10/26 05:37:53;;;;;;;11.20;6.55;;;9.70;99.90;;;;;;5025230;28;20468;-76
2022/10/26 05:40:19;;;;;;;9.48;5.65;;;9.70;99.90;;;;;;5026415;28;20121;-75
2022/10/26 05:42:45;;;;;;;11.38;5.70;;;9.70;99.90;;;;;;5032388;28;20028;-75
2022/10/26 05:45:11;;;;;;;9.40;5.85;;;9.70;99.90;;;;;;5001543;28;20712;-75
2022/10/26 05:47:41;;;;;;;10.63;5.30;;;9.80;99.90;;;;;;5023912;28;20116;-75
2022/10/26 05:50:08;;;;;;;9.23;5.78;;;9.80;99.90;;;;;;5025740;28;20029;-75
2022/10/26 05:52:47;;;;;;;8.68;5.47;;;9.90;99.90;;;;;;5021074;28;20055;-75
2022/10/26 05:55:14;;;;;;;10.60;6.47;;;9.90;99.90;;;;;;5019089;28;20020;-75
2022/10/26 05:57:41;;;;;;;18.42;9.45;;;9.80;99.90;;;;;;5021117;28;20380;-76
2022/10/26 06:00:15;;;;;;;12.43;7.68;;;9.90;99.90;;;;;;5025570;28;20026;-76
2022/10/26 06:03:18;;;;;;;9.85;6.25;;;9.90;99.90;;;;;;5024255;28;20027;-75
2022/10/26 06:05:56;;;;;;;12.27;9.48;;;9.90;99.90;;;;;;5031521;28;20415;-76
2022/10/26 06:08:24;;;;;;;11.60;8.60;;;9.90;99.90;;;;;;5026481;28;20100;-75
2022/10/26 06:10:50;;;;;;;13.50;8.65;;;9.90;99.90;;;;;;5024214;28;20518;-75
2022/10/26 06:13:17;;;;;;;17.35;9.27;;;10.00;99.90;;;;;;5018461;28;20112;-76
2022/10/26 06:16:06;;;;;;;15.05;10.00;;;9.90;99.90;;;;;;5019937;28;20026;-76
2022/10/26 06:18:40;;;;;;;15.88;10.57;;;9.70;99.90;;;;;;5020042;28;20025;-75
2022/10/26 06:21:38;;;;;;;14.68;9.30;;;9.60;99.90;;;;;;5018494;28;20030;-75
2022/10/26 06:24:06;;;;;;;14.00;8.70;;;9.50;99.90;;;;;;5031679;28;20072;-75
2022/10/26 06:26:39;;;;;;;13.98;11.50;;;9.50;99.90;;;;;;5035935;28;20075;-75
2022/10/26 06:29:21;;;;;;;12.93;8.23;;;9.50;99.90;;;;;;5018015;28;20512;-75
2022/10/26 06:31:47;;;;;;;13.32;8.77;;;9.60;99.90;;;;;;5002939;28;20116;-76
2022/10/26 06:34:31;;;;;;;17.65;12.70;;;9.50;99.90;;;;;;5024780;28;20454;-76
2022/10/26 06:36:59;;;;;;;45.58;34.17;;;9.70;99.90;;;;;;5006804;28;20055;-75
2022/10/26 06:39:27;;;;;;;58.50;42.85;;;9.80;99.90;;;;;;5018200;28;20029;-76
2022/10/26 06:41:54;;;;;;;39.25;30.52;;;9.80;99.90;;;;;;5044159;28;20017;-76
2022/10/26 06:44:23;;;;;;;27.45;19.75;;;9.90;99.90;;;;;;5023367;28;20909;-76
2022/10/26 06:46:58;;;;;;;16.83;12.75;;;9.90;99.90;;;;;;5026067;28;20037;-75
2022/10/26 06:49:31;;;;;;;12.77;11.07;;;10.00;99.90;;;;;;5003769;28;20022;-75
2022/10/26 06:52:14;;;;;;;9.23;6.88;;;10.10;99.90;;;;;;5024578;28;20026;-75
2022/10/26 06:54:50;;;;;;;12.15;6.88;;;10.20;99.90;;;;;;5007118;28;20032;-75
2022/10/26 06:57:18;;;;;;;9.80;7.15;;;10.30;99.90;;;;;;5020595;28;20391;-76
2022/10/26 06:59:56;;;;;;;8.00;6.72;;;10.30;99.90;;;;;;5001807;28;20037;-75
2022/10/26 07:02:21;;;;;;;12.10;9.73;;;10.40;99.90;;;;;;5005411;28;20030;-75
2022/10/26 07:04:47;;;;;;;31.52;23.75;;;10.40;99.90;;;;;;5028388;28;20047;-75
2022/10/26 07:07:18;;;;;;;19.42;16.50;;;10.30;99.90;;;;;;5032174;28;20026;-75
2022/10/26 07:09:43;;;;;;;69.75;44.35;;;10.40;99.90;;;;;;5023622;28;20053;-75
2022/10/26 07:12:09;;;;;;;160.75;121.03;;;10.30;99.90;;;;;;5004764;28;20065;-75
2022/10/26 07:14:34;;;;;;;756.28;539.08;;;10.20;99.90;;;;;;5007933;28;20060;-75
2022/10/26 07:17:00;;;;;;;427.33;309.63;;;10.30;99.90;;;;;;5021912;28;20048;-75
2022/10/26 07:19:26;;;;;;;57.75;37.35;;;10.30;99.90;;;;;;5018854;28;20024;-75
2022/10/26 07:21:55;;;;;;;31.98;23.58;;;10.40;99.90;;;;;;5022304;28;20022;-75
2022/10/26 07:24:22;;;;;;;47.20;33.35;;;10.50;99.90;;;;;;5025551;28;20029;-75
2022/10/26 07:26:48;;;;;;;36.03;26.90;;;10.60;99.90;;;;;;5022226;28;20025;-74
2022/10/26 07:29:15;;;;;;;39.97;28.35;;;10.60;99.90;;;;;;5018705;28;20498;-75
2022/10/26 07:31:40;;;;;;;39.65;28.90;;;10.70;99.90;;;;;;5014235;28;20125;-75
2022/10/26 07:34:06;;;;;;;40.30;28.83;;;10.90;99.90;;;;;;5018543;28;20036;-75
2022/10/26 07:36:32;;;;;;;30.63;23.58;;;11.10;99.90;;;;;;5004263;28;20080;-75
2022/10/26 07:38:58;;;;;;;21.25;13.82;;;11.30;99.90;;;;;;5007370;28;20697;-75
2022/10/26 07:41:23;;;;;;;11.43;9.85;;;11.30;99.90;;;;;;5012102;28;20034;-75
2022/10/26 07:43:49;;;;;;;13.93;10.38;;;11.30;99.90;;;;;;5025445;28;20053;-75
2022/10/26 07:46:16;;;;;;;9.82;8.68;;;11.40;99.90;;;;;;5004420;28;20430;-75
2022/10/26 07:48:41;;;;;;;11.00;7.80;;;11.50;99.90;;;;;;5018129;28;20041;-75
2022/10/26 07:51:07;;;;;;;14.02;11.30;;;11.60;99.90;;;;;;5004030;28;20061;-75
2022/10/26 07:53:33;;;;;;;15.00;11.00;;;11.70;99.90;;;;;;5025139;28;20036;-75
2022/10/26 07:55:58;;;;;;;14.82;11.20;;;11.70;99.90;;;;;;5003909;28;20021;-75
2022/10/26 07:58:25;;;;;;;11.75;9.63;;;11.80;99.90;;;;;;5019801;28;20026;-75
2022/10/26 08:00:54;;;;;;;12.35;10.38;;;11.80;99.90;;;;;;5038242;28;20013;-75
2022/10/26 08:03:20;;;;;;;12.25;9.90;;;11.70;99.90;;;;;;5003757;28;20057;-75
2022/10/26 08:05:46;;;;;;;13.82;10.02;;;11.80;99.90;;;;;;5018481;28;20030;-75
2022/10/26 08:08:13;;;;;;;12.43;10.93;;;11.70;99.90;;;;;;5017530;28;20031;-75
2022/10/26 08:10:42;;;;;;;15.13;10.63;;;11.70;99.90;;;;;;5027364;28;20065;-75
2022/10/26 08:13:08;;;;;;;11.00;9.07;;;11.70;99.90;;;;;;5036260;28;20029;-74
2022/10/26 08:15:34;;;;;;;11.45;6.80;;;11.80;99.90;;;;;;5009357;28;20129;-75
2022/10/26 08:17:59;;;;;;;8.15;6.72;;;11.90;99.90;;;;;;5013635;28;20021;-74
2022/10/26 08:20:25;;;;;;;14.25;12.65;;;11.70;99.90;;;;;;5029086;28;20391;-75
2022/10/26 08:22:51;;;;;;;12.05;10.02;;;11.70;99.90;;;;;;5020571;28;20396;-74
2022/10/26 08:25:17;;;;;;;19.40;12.35;;;11.80;99.90;;;;;;5011475;28;20034;-74
2022/10/26 08:27:43;;;;;;;18.55;14.38;;;11.90;99.90;;;;;;5024287;28;20037;-74
2022/10/26 08:30:09;;;;;;;14.70;10.23;;;11.90;99.90;;;;;;5027439;28;20034;-74
2022/10/26 08:32:34;;;;;;;10.20;9.00;;;12.00;99.90;;;;;;5031378;28;20163;-74
2022/10/26 08:35:00;;;;;;;11.68;7.82;;;12.20;99.90;;;;;;5028787;28;20029;-75
2022/10/26 08:37:26;;;;;;;10.13;7.70;;;12.30;99.90;;;;;;5024375;28;20025;-75
2022/10/26 08:39:52;;;;;;;10.15;7.18;;;12.40;99.90;;;;;;5027118;28;20456;-75
2022/10/26 08:42:37;;;;;;;12.52;6.63;;;12.50;99.90;;;;;;5031237;28;20121;-75
2022/10/26 08:45:11;;;;;;;9.88;8.18;;;12.50;99.90;;;;;;5005595;28;20017;-75
2022/10/26 08:47:45;;;;;;;10.18;6.93;;;12.70;99.90;;;;;;5028036;28;20079;-73
2022/10/26 08:50:37;;;;;;;14.13;10.52;;;12.80;99.90;;;;;;5017737;28;20104;-74
2022/10/26 08:53:15;;;;;;;19.55;10.68;;;12.80;99.90;;;;;;5016753;28;20083;-74
2022/10/26 08:55:45;;;;;;;9.43;7.88;;;13.00;99.90;;;;;;5017997;28;20467;-74
2022/10/26 08:58:17;;;;;;;9.13;6.43;;;13.10;99.90;;;;;;5032656;28;20030;-73
2022/10/26 09:00:46;;;;;;;7.65;5.00;;;13.30;99.90;;;;;;5037528;28;20532;-74
2022/10/26 09:03:16;;;;;;;8.25;4.95;;;13.40;99.90;;;;;;5037552;28;20053;-74
2022/10/26 09:05:48;;;;;;;7.63;4.40;;;13.50;99.90;;;;;;5009814;28;20057;-75
2022/10/26 09:08:40;;;;;;;6.90;4.03;;;13.60;99.90;;;;;;5022102;28;20117;-75
2022/10/26 09:11:20;;;;;;;6.30;3.58;;;13.70;99.90;;;;;;5030511;28;20030;-75
2022/10/26 09:14:10;;;;;;;6.93;4.50;;;13.80;99.90;;;;;;5014720;28;20392;-75
2022/10/26 09:17:00;;;;;;;5.75;3.83;;;13.90;99.90;;;;;;5021187;28;20032;-75
2022/10/26 09:19:51;;;;;;;8.82;4.13;;;13.90;99.90;;;;;;5021008;28;20419;-75
2022/10/26 09:22:51;;;;;;;6.40;3.53;;;14.00;99.90;;;;;;5021403;28;20191;-76
2022/10/26 09:25:22;;;;;;;3.95;3.28;;;13.90;99.90;;;;;;5025548;28;20056;-75
2022/10/26 09:28:00;;;;;;;5.88;3.22;;;14.00;99.90;;;;;;5033759;28;20043;-75
2022/10/26 09:30:25;;;;;;;5.57;3.78;;;14.00;99.90;;;;;;5021026;28;20030;-75
2022/10/26 09:32:58;;;;;;;5.18;3.63;;;13.90;99.90;;;;;;5020870;28;20033;-75
2022/10/26 09:35:27;;;;;;;6.00;3.33;;;13.90;99.90;;;;;;5015592;28;20478;-75
2022/10/26 09:38:05;;;;;;;7.53;3.60;;;13.80;99.90;;;;;;5021874;28;20060;-76
2022/10/26 09:40:40;;;;;;;8.00;5.43;;;13.80;99.90;;;;;;5018202;28;20105;-77
2022/10/26 09:43:33;;;;;;;6.22;3.17;;;13.80;99.90;;;;;;5007870;28;20048;-76
2022/10/26 09:45:59;;;;;;;6.72;3.88;;;13.70;99.90;;;;;;4996483;28;20030;-75
2022/10/26 09:48:44;;;;;;;9.27;3.33;;;13.70;99.90;;;;;;5026956;28;20025;-75
2022/10/26 09:51:10;;;;;;;8.75;3.65;;;13.80;99.90;;;;;;5024865;28;20385;-76
2022/10/26 09:53:36;;;;;;;6.82;3.75;;;13.90;99.90;;;;;;5020328;28;20025;-75
2022/10/26 09:56:13;;;;;;;5.35;3.50;;;13.90;99.90;;;;;;5023274;28;20036;-75
2022/10/26 09:59:02;;;;;;;7.63;3.42;;;14.00;99.90;;;;;;5009097;28;20025;-75
2022/10/26 10:01:28;;;;;;;6.18;3.45;;;14.00;99.90;;;;;;5026890;28;20026;-76
2022/10/26 10:04:12;;;;;;;8.07;3.47;;;14.00;99.90;;;;;;5022639;28;20104;-76
2022/10/26 10:06:43;;;;;;;7.60;3.90;;;14.10;99.90;;;;;;5015718;28;20115;-75
2022/10/26 10:09:09;;;;;;;6.22;3.50;;;14.20;99.90;;;;;;4995857;28;20030;-75
2022/10/26 10:11:55;;;;;;;9.50;3.53;;;14.10;99.90;;;;;;5027061;28;20018;-76
2022/10/26 10:14:23;;;;;;;5.53;3.65;;;14.30;99.90;;;;;;5026075;28;20033;-75
2022/10/26 10:16:58;;;;;;;7.30;3.47;;;14.40;99.90;;;;;;5033085;28;20025;-75
2022/10/26 10:19:35;;;;;;;5.82;3.60;;;14.60;99.90;;;;;;5019821;28;20057;-75
2022/10/26 10:22:07;;;;;;;8.15;3.70;;;14.70;99.90;;;;;;5004749;28;20522;-75
2022/10/26 10:24:35;;;;;;;7.75;3.20;;;14.70;99.90;;;;;;5026584;28;20067;-75
2022/10/26 10:27:19;;;;;;;6.97;3.90;;;14.90;99.90;;;;;;5024585;28;20018;-76
2022/10/26 10:29:46;;;;;;;5.60;3.13;;;15.00;99.90;;;;;;5013179;28;20021;-74
2022/10/26 10:32:19;;;;;;;6.38;4.13;;;15.10;99.90;;;;;;5026373;28;20017;-75
2022/10/26 10:34:45;;;;;;;8.57;4.13;;;15.30;99.90;;;;;;5022030;28;20112;-75
2022/10/26 10:37:33;;;;;;;7.93;3.50;;;15.10;99.90;;;;;;5030519;28;20053;-74
2022/10/26 10:40:06;;;;;;;5.32;3.30;;;15.40;99.90;;;;;;5024758;28;20026;-75
2022/10/26 10:42:38;;;;;;;4.85;2.83;;;15.40;99.90;;;;;;5032967;28;20026;-75
2022/10/26 10:45:06;;;;;;;8.88;3.15;;;15.60;99.90;;;;;;5014555;28;20029;-74
2022/10/26 10:47:33;;;;;;;5.45;3.00;;;15.70;99.90;;;;;;4995184;28;20034;-74
2022/10/26 10:50:19;;;;;;;6.60;3.20;;;15.60;99.90;;;;;;5026437;28;20619;-75
2022/10/26 10:52:45;;;;;;;13.77;3.30;;;15.50;99.90;;;;;;5023281;28;20056;-75
2022/10/26 10:55:14;;;;;;;6.32;2.70;;;15.40;99.90;;;;;;5019333;28;20483;-75
2022/10/26 10:58:07;;;;;;;6.22;2.90;;;15.60;99.90;;;;;;5015217;28;20021;-74
2022/10/26 11:00:36;;;;;;;5.47;2.38;;;15.70;99.90;;;;;;5020520;28;20075;-75
2022/10/26 11:03:40;;;;;;;5.90;3.47;;;15.70;99.90;;;;;;5032340;28;20029;-75
2022/10/26 11:06:27;;;;;;;6.40;3.13;;;15.90;99.90;;;;;;5001511;28;20073;-75
2022/10/26 11:08:58;;;;;;;4.32;3.00;;;16.00;99.90;;;;;;5012523;28;20029;-75
2022/10/26 11:11:33;;;;;;;5.07;2.50;;;16.10;99.90;;;;;;5025936;28;20044;-75
2022/10/26 11:14:05;;;;;;;5.95;2.50;;;16.10;99.90;;;;;;5023924;28;20032;-75
2022/10/26 11:16:39;;;;;;;6.20;2.70;;;16.10;99.90;;;;;;5001315;28;20021;-75
2022/10/26 11:19:22;;;;;;;6.82;3.28;;;16.00;99.90;;;;;;5018659;28;20091;-75
2022/10/26 11:21:54;;;;;;;6.93;3.00;;;16.10;99.90;;;;;;5005361;28;20022;-74
2022/10/26 11:24:32;;;;;;;5.90;2.53;;;16.20;99.90;;;;;;5028586;28;20025;-75
2022/10/26 11:27:00;;;;;;;7.40;2.90;;;16.40;99.90;;;;;;5013836;28;20029;-76
2022/10/26 11:29:44;;;;;;;5.63;2.80;;;16.70;99.90;;;;;;5018607;28;20639;-76
2022/10/26 11:32:29;;;;;;;5.43;2.63;;;17.00;99.90;;;;;;5031553;28;20021;-75
2022/10/26 11:35:02;;;;;;;4.93;2.90;;;17.20;99.90;;;;;;5013372;28;20491;-75
2022/10/26 11:37:36;;;;;;;6.68;2.55;;;17.20;99.90;;;;;;5031725;28;20025;-75
2022/10/26 11:40:32;;;;;;;7.03;2.45;;;17.10;99.90;;;;;;5032010;28;20020;-75
2022/10/26 11:43:01;;;;;;;8.20;2.50;;;17.10;99.90;;;;;;5021698;28;20468;-75
2022/10/26 11:45:45;;;;;;;9.27;3.20;;;17.70;99.90;;;;;;5010249;28;20029;-76
2022/10/26 11:48:33;;;;;;;5.28;2.72;;;18.30;99.90;;;;;;5012721;28;20128;-76
2022/10/26 11:50:58;;;;;;;8.88;2.67;;;17.80;99.90;;;;;;5011735;28;20030;-76
2022/10/26 11:53:30;;;;;;;6.05;2.70;;;17.40;99.90;;;;;;5023819;28;20395;-75
2022/10/26 11:55:58;;;;;;;6.28;2.80;;;17.50;99.90;;;;;;5004475;28;20104;-76
2022/10/26 11:58:26;;;;;;;4.78;2.60;;;17.30;99.90;;;;;;5027955;28;20018;-75
2022/10/26 12:01:01;;;;;;;5.90;3.00;;;17.20;99.90;;;;;;5022101;28;20384;-75
2022/10/26 12:03:36;;;;;;;4.95;2.65;;;17.00;99.90;;;;;;5026540;28;20034;-75
2022/10/26 12:06:02;;;;;;;6.20;2.80;;;17.10;99.90;;;;;;5028507;28;20553;-76
2022/10/26 12:08:49;;;;;;;7.22;2.83;;;17.50;99.90;;;;;;5031422;28;20104;-75
2022/10/26 12:11:32;;;;;;;5.40;2.80;;;17.20;99.90;;;;;;5014023;28;20026;-76
2022/10/26 12:14:20;;;;;;;6.00;3.03;;;16.90;99.90;;;;;;5006269;28;20396;-76
2022/10/26 12:16:45;;;;;;;6.00;2.80;;;16.90;99.90;;;;;;5020022;28;20423;-76
2022/10/26 12:19:28;;;;;;;6.57;3.00;;;17.30;99.90;;;;;;5018365;28;20026;-76
2022/10/26 12:21:54;;;;;;;7.82;2.60;;;17.30;99.90;;;;;;5020658;28;20026;-76
2022/10/26 12:24:23;;;;;;;4.32;2.97;;;17.70;99.90;;;;;;5011770;28;20600;-75
2022/10/26 12:26:58;;;;;;;8.43;3.17;;;17.10;99.90;;;;;;4993792;28;20109;-75
2022/10/26 12:29:37;;;;;;;6.22;3.22;;;17.00;99.90;;;;;;5017529;28;20079;-76
2022/10/26 12:32:24;;;;;;;6.32;2.38;;;17.00;99.90;;;;;;5017028;28;20105;-76
2022/10/26 12:34:50;;;;;;;7.60;2.95;;;17.40;99.90;;;;;;4987132;28;20711;-76
2022/10/26 12:37:29;;;;;;;4.65;2.88;;;17.50;99.90;;;;;;5025230;28;20030;-75
2022/10/26 12:40:30;;;;;;;8.82;2.90;;;17.50;99.90;;;;;;5024250;28;20022;-76
2022/10/26 12:42:56;;;;;;;8.82;3.22;;;17.10;99.90;;;;;;5003358;28;20029;-76
2022/10/26 12:45:22;;;;;;;6.68;3.30;;;17.10;99.90;;;;;;5002565;28;20033;-76
2022/10/26 12:47:47;;;;;;;7.10;3.20;;;17.20;99.90;;;;;;5025690;28;20062;-76
2022/10/26 12:50:13;;;;;;;7.57;2.75;;;17.30;99.90;;;;;;5015452;28;20084;-76
2022/10/26 12:52:54;;;;;;;6.43;2.60;;;17.30;99.90;;;;;;5015456;28;20026;-75
2022/10/26 12:55:48;;;;;;;5.57;2.60;;;17.60;99.90;;;;;;5010761;28;20049;-76
2022/10/26 12:58:26;;;;;;;3.80;2.40;;;17.70;99.90;;;;;;4996085;28;20038;-76
2022/10/26 13:01:10;;;;;;;4.78;2.75;;;17.50;99.90;;;;;;5025492;28;20045;-76
2022/10/26 13:04:02;;;;;;;6.38;2.50;;;17.30;99.90;;;;;;5003966;28;20044;-76
2022/10/26 13:06:42;;;;;;;4.15;2.53;;;17.20;99.90;;;;;;5003953;28;20029;-76
2022/10/26 13:09:27;;;;;;;5.57;2.80;;;17.10;99.90;;;;;;5022675;28;20026;-73
2022/10/26 13:11:56;;;;;;;5.68;2.85;;;17.20;99.90;;;;;;5014754;28;20022;-76